sensor_id;sensor_type;location;lat;lon;timestamp;P1;durP1;ratioP1;P2;durP2;ratioP2
4434;SDS011;46552;52.150;8.428;2023-02-04T00:00:08;54.10;;;9.70;;
4434;SDS011;46552;52.150;8.428;2023-02-04T00:02:37;49.03;;;6.20;;
4434;SDS011;46552;52.150;8.428;2023-02-04T00:05:05;33.37;;;7.30;;
4434;SDS011;46552;52.150;8.428;2023-02-04T00:07:34;40.33;;;8.50;;
4434;SDS011;46552;52.150;8.428;2023-02-04T00:10:00;44.33;;;7.23;;
4434;SDS011;46552;52.150;8.428;2023-02-04T00:12:28;53.87;;;9.30;;
4434;SDS011;46552;52.150;8.428;2023-02-04T00:14:55;45.00;;;7.50;;
4434;SDS011;46552;52.150;8.428;2023-02-04T00:17:22;50.63;;;7.80;;
4434;SDS011;46552;52.150;8.428;2023-02-04T00:19:50;63.73;;;8.27;;
4434;SDS011;46552;52.150;8.428;2023-02-04T00:22:17;42.30;;;7.83;;
4434;SDS011;46552;52.150;8.428;2023-02-04T00:24:47;31.80;;;7.27;;
4434;SDS011;46552;52.150;8.428;2023-02-04T00:27:14;40.53;;;6.23;;
4434;SDS011;46552;52.150;8.428;2023-02-04T00:29:42;34.90;;;6.30;;
4434;SDS011;46552;52.150;8.428;2023-02-04T00:32:09;50.53;;;8.00;;
4434;SDS011;46552;52.150;8.428;2023-02-04T00:34:36;46.03;;;7.80;;
4434;SDS011;46552;52.150;8.428;2023-02-04T00:37:04;44.10;;;6.83;;
4434;SDS011;46552;52.150;8.428;2023-02-04T00:39:31;56.57;;;7.20;;
4434;SDS011;46552;52.150;8.428;2023-02-04T00:42:01;37.37;;;6.30;;
4434;SDS011;46552;52.150;8.428;2023-02-04T00:44:29;29.83;;;5.53;;
4434;SDS011;46552;52.150;8.428;2023-02-04T00:46:57;44.70;;;6.00;;
4434;SDS011;46552;52.150;8.428;2023-02-04T00:49:24;39.07;;;6.67;;
4434;SDS011;46552;52.150;8.428;2023-02-04T00:51:51;68.77;;;7.70;;
4434;SDS011;46552;52.150;8.428;2023-02-04T00:54:19;39.30;;;6.67;;
4434;SDS011;46552;52.150;8.428;2023-02-04T00:56:46;44.07;;;7.47;;
4434;SDS011;46552;52.150;8.428;2023-02-04T00:59:15;36.67;;;8.23;;
4434;SDS011;46552;52.150;8.428;2023-02-04T01:01:43;33.93;;;6.60;;
4434;SDS011;46552;52.150;8.428;2023-02-04T01:04:10;55.67;;;6.63;;
4434;SDS011;46552;52.150;8.428;2023-02-04T01:06:39;43.83;;;6.80;;
4434;SDS011;46552;52.150;8.428;2023-02-04T01:09:06;52.20;;;7.10;;
4434;SDS011;46552;52.150;8.428;2023-02-04T01:11:34;44.63;;;8.13;;
4434;SDS011;46552;52.150;8.428;2023-02-04T01:14:01;39.53;;;9.13;;
4434;SDS011;46552;52.150;8.428;2023-02-04T01:16:30;43.37;;;6.83;;
4434;SDS011;46552;52.150;8.428;2023-02-04T01:18:57;42.10;;;7.43;;
4434;SDS011;46552;52.150;8.428;2023-02-04T01:21:24;42.33;;;6.63;;
4434;SDS011;46552;52.150;8.428;2023-02-04T01:23:53;54.30;;;9.33;;
4434;SDS011;46552;52.150;8.428;2023-02-04T01:26:20;36.63;;;6.17;;
4434;SDS011;46552;52.150;8.428;2023-02-04T01:28:48;39.57;;;8.27;;
4434;SDS011;46552;52.150;8.428;2023-02-04T01:31:15;44.30;;;7.80;;
4434;SDS011;46552;52.150;8.428;2023-02-04T01:33:45;33.57;;;6.17;;
4434;SDS011;46552;52.150;8.428;2023-02-04T01:36:12;36.40;;;7.57;;
4434;SDS011;46552;52.150;8.428;2023-02-04T01:38:45;42.93;;;7.07;;
4434;SDS011;46552;52.150;8.428;2023-02-04T01:41:13;43.53;;;6.43;;
4434;SDS011;46552;52.150;8.428;2023-02-04T01:43:41;44.50;;;6.67;;
4434;SDS011;46552;52.150;8.428;2023-02-04T01:46:08;44.67;;;6.83;;
4434;SDS011;46552;52.150;8.428;2023-02-04T01:48:35;44.20;;;7.93;;
4434;SDS011;46552;52.150;8.428;2023-02-04T01:51:05;41.50;;;6.50;;
4434;SDS011;46552;52.150;8.428;2023-02-04T01:53:35;38.37;;;6.50;;
4434;SDS011;46552;52.150;8.428;2023-02-04T01:56:08;34.90;;;4.50;;
4434;SDS011;46552;52.150;8.428;2023-02-04T01:58:40;42.97;;;8.50;;
4434;SDS011;46552;52.150;8.428;2023-02-04T02:01:09;47.90;;;6.27;;
4434;SDS011;46552;52.150;8.428;2023-02-04T02:03:39;35.73;;;6.77;;
4434;SDS011;46552;52.150;8.428;2023-02-04T02:06:08;28.93;;;5.00;;
4434;SDS011;46552;52.150;8.428;2023-02-04T02:08:37;37.50;;;5.60;;
4434;SDS011;46552;52.150;8.428;2023-02-04T02:11:04;26.90;;;4.87;;
4434;SDS011;46552;52.150;8.428;2023-02-04T02:13:32;38.50;;;6.13;;
4434;SDS011;46552;52.150;8.428;2023-02-04T02:16:01;27.13;;;5.10;;
4434;SDS011;46552;52.150;8.428;2023-02-04T02:18:28;24.30;;;5.47;;
4434;SDS011;46552;52.150;8.428;2023-02-04T02:20:55;39.33;;;5.80;;
4434;SDS011;46552;52.150;8.428;2023-02-04T02:26:10;27.80;;;5.80;;
4434;SDS011;46552;52.150;8.428;2023-02-04T02:28:37;32.43;;;5.73;;
4434;SDS011;46552;52.150;8.428;2023-02-04T02:31:05;39.50;;;5.43;;
4434;SDS011;46552;52.150;8.428;2023-02-04T02:33:32;46.47;;;6.83;;
4434;SDS011;46552;52.150;8.428;2023-02-04T02:36:01;39.00;;;5.80;;
4434;SDS011;46552;52.150;8.428;2023-02-04T02:38:28;39.17;;;7.13;;
4434;SDS011;46552;52.150;8.428;2023-02-04T02:40:57;58.43;;;6.27;;
4434;SDS011;46552;52.150;8.428;2023-02-04T02:43:26;28.73;;;6.00;;
4434;SDS011;46552;52.150;8.428;2023-02-04T02:45:54;26.20;;;6.83;;
4434;SDS011;46552;52.150;8.428;2023-02-04T02:48:24;33.63;;;5.43;;
4434;SDS011;46552;52.150;8.428;2023-02-04T02:50:52;28.43;;;4.93;;
4434;SDS011;46552;52.150;8.428;2023-02-04T02:53:19;40.80;;;6.10;;
4434;SDS011;46552;52.150;8.428;2023-02-04T02:55:47;24.43;;;6.37;;
4434;SDS011;46552;52.150;8.428;2023-02-04T02:58:18;38.33;;;5.33;;
4434;SDS011;46552;52.150;8.428;2023-02-04T03:00:50;33.27;;;7.10;;
4434;SDS011;46552;52.150;8.428;2023-02-04T03:03:18;25.70;;;5.20;;
4434;SDS011;46552;52.150;8.428;2023-02-04T03:05:49;36.60;;;5.87;;
4434;SDS011;46552;52.150;8.428;2023-02-04T03:08:19;21.97;;;5.13;;
4434;SDS011;46552;52.150;8.428;2023-02-04T03:10:47;45.90;;;6.17;;
4434;SDS011;46552;52.150;8.428;2023-02-04T03:13:16;25.27;;;6.43;;
4434;SDS011;46552;52.150;8.428;2023-02-04T03:15:44;32.07;;;7.50;;
4434;SDS011;46552;52.150;8.428;2023-02-04T03:18:13;30.50;;;5.10;;
4434;SDS011;46552;52.150;8.428;2023-02-04T03:20:43;37.07;;;5.67;;
4434;SDS011;46552;52.150;8.428;2023-02-04T03:23:11;34.57;;;5.60;;
4434;SDS011;46552;52.150;8.428;2023-02-04T03:25:39;36.93;;;5.23;;
4434;SDS011;46552;52.150;8.428;2023-02-04T03:28:06;34.23;;;6.67;;
4434;SDS011;46552;52.150;8.428;2023-02-04T03:30:35;26.30;;;6.17;;
4434;SDS011;46552;52.150;8.428;2023-02-04T03:33:03;24.13;;;5.17;;
4434;SDS011;46552;52.150;8.428;2023-02-04T03:35:30;19.50;;;5.13;;
4434;SDS011;46552;52.150;8.428;2023-02-04T03:37:58;33.87;;;5.47;;
4434;SDS011;46552;52.150;8.428;2023-02-04T03:40:25;30.87;;;5.40;;
4434;SDS011;46552;52.150;8.428;2023-02-04T03:42:54;26.50;;;5.27;;
4434;SDS011;46552;52.150;8.428;2023-02-04T03:45:21;24.57;;;5.33;;
4434;SDS011;46552;52.150;8.428;2023-02-04T03:47:50;35.33;;;5.03;;
4434;SDS011;46552;52.150;8.428;2023-02-04T03:50:17;35.77;;;4.47;;
4434;SDS011;46552;52.150;8.428;2023-02-04T03:52:44;33.70;;;5.10;;
4434;SDS011;46552;52.150;8.428;2023-02-04T03:55:13;28.10;;;4.83;;
4434;SDS011;46552;52.150;8.428;2023-02-04T03:57:40;30.87;;;5.63;;
4434;SDS011;46552;52.150;8.428;2023-02-04T04:00:08;38.30;;;5.77;;
4434;SDS011;46552;52.150;8.428;2023-02-04T04:02:36;48.37;;;7.90;;
4434;SDS011;46552;52.150;8.428;2023-02-04T04:05:06;37.93;;;6.40;;
4434;SDS011;46552;52.150;8.428;2023-02-04T04:07:33;35.47;;;5.90;;
4434;SDS011;46552;52.150;8.428;2023-02-04T04:10:01;24.00;;;4.87;;
4434;SDS011;46552;52.150;8.428;2023-02-04T04:12:28;25.23;;;4.20;;
4434;SDS011;46552;52.150;8.428;2023-02-04T04:14:57;14.80;;;3.83;;
4434;SDS011;46552;52.150;8.428;2023-02-04T04:17:24;36.63;;;6.17;;
4434;SDS011;46552;52.150;8.428;2023-02-04T04:19:51;29.03;;;7.93;;
4434;SDS011;46552;52.150;8.428;2023-02-04T04:22:20;36.20;;;5.03;;
4434;SDS011;46552;52.150;8.428;2023-02-04T04:24:48;20.13;;;4.97;;
4434;SDS011;46552;52.150;8.428;2023-02-04T04:27:15;19.20;;;3.43;;
4434;SDS011;46552;52.150;8.428;2023-02-04T04:29:43;26.67;;;4.60;;
4434;SDS011;46552;52.150;8.428;2023-02-04T04:32:11;34.50;;;5.70;;
4434;SDS011;46552;52.150;8.428;2023-02-04T04:34:38;39.40;;;6.37;;
4434;SDS011;46552;52.150;8.428;2023-02-04T04:37:06;20.50;;;3.60;;
4434;SDS011;46552;52.150;8.428;2023-02-04T04:39:37;10.37;;;2.70;;
4434;SDS011;46552;52.150;8.428;2023-02-04T04:42:04;22.97;;;3.17;;
4434;SDS011;46552;52.150;8.428;2023-02-04T04:44:31;13.47;;;1.87;;
4434;SDS011;46552;52.150;8.428;2023-02-04T04:46:58;7.33;;;2.40;;
4434;SDS011;46552;52.150;8.428;2023-02-04T04:49:27;6.90;;;1.73;;
4434;SDS011;46552;52.150;8.428;2023-02-04T04:51:54;12.40;;;2.10;;
4434;SDS011;46552;52.150;8.428;2023-02-04T04:54:22;12.80;;;1.80;;
4434;SDS011;46552;52.150;8.428;2023-02-04T04:56:51;15.63;;;2.03;;
4434;SDS011;46552;52.150;8.428;2023-02-04T04:59:18;18.63;;;2.87;;
4434;SDS011;46552;52.150;8.428;2023-02-04T05:01:46;7.00;;;2.30;;
4434;SDS011;46552;52.150;8.428;2023-02-04T05:04:13;21.67;;;1.93;;
4434;SDS011;46552;52.150;8.428;2023-02-04T05:06:40;10.07;;;1.70;;
4434;SDS011;46552;52.150;8.428;2023-02-04T05:09:07;8.97;;;2.23;;
4434;SDS011;46552;52.150;8.428;2023-02-04T05:11:35;20.17;;;3.03;;
4434;SDS011;46552;52.150;8.428;2023-02-04T05:14:03;6.37;;;2.03;;
4434;SDS011;46552;52.150;8.428;2023-02-04T05:16:31;8.77;;;1.57;;
4434;SDS011;46552;52.150;8.428;2023-02-04T05:18:58;6.87;;;2.07;;
4434;SDS011;46552;52.150;8.428;2023-02-04T05:21:25;7.93;;;1.77;;
4434;SDS011;46552;52.150;8.428;2023-02-04T05:23:55;9.00;;;2.07;;
4434;SDS011;46552;52.150;8.428;2023-02-04T05:26:23;7.77;;;2.30;;
4434;SDS011;46552;52.150;8.428;2023-02-04T05:28:51;8.03;;;2.00;;
4434;SDS011;46552;52.150;8.428;2023-02-04T05:31:20;6.67;;;1.60;;
4434;SDS011;46552;52.150;8.428;2023-02-04T05:33:47;9.83;;;2.27;;
4434;SDS011;46552;52.150;8.428;2023-02-04T05:36:15;13.37;;;2.13;;
4434;SDS011;46552;52.150;8.428;2023-02-04T05:38:42;7.43;;;2.37;;
4434;SDS011;46552;52.150;8.428;2023-02-04T05:41:10;15.37;;;2.70;;
4434;SDS011;46552;52.150;8.428;2023-02-04T05:43:38;10.23;;;2.73;;
4434;SDS011;46552;52.150;8.428;2023-02-04T05:46:05;10.60;;;3.27;;
4434;SDS011;46552;52.150;8.428;2023-02-04T05:48:34;7.60;;;2.10;;
4434;SDS011;46552;52.150;8.428;2023-02-04T05:51:04;14.60;;;2.50;;
4434;SDS011;46552;52.150;8.428;2023-02-04T05:53:32;10.23;;;1.90;;
4434;SDS011;46552;52.150;8.428;2023-02-04T05:56:00;7.07;;;2.50;;
4434;SDS011;46552;52.150;8.428;2023-02-04T05:58:27;18.97;;;2.10;;
4434;SDS011;46552;52.150;8.428;2023-02-04T06:00:57;13.33;;;2.37;;
4434;SDS011;46552;52.150;8.428;2023-02-04T06:03:25;7.77;;;1.77;;
4434;SDS011;46552;52.150;8.428;2023-02-04T06:05:54;13.20;;;1.90;;
4434;SDS011;46552;52.150;8.428;2023-02-04T06:08:21;6.73;;;1.90;;
4434;SDS011;46552;52.150;8.428;2023-02-04T06:10:48;10.73;;;2.97;;
4434;SDS011;46552;52.150;8.428;2023-02-04T06:13:16;12.10;;;2.37;;
4434;SDS011;46552;52.150;8.428;2023-02-04T06:15:43;11.97;;;2.30;;
4434;SDS011;46552;52.150;8.428;2023-02-04T06:18:11;8.70;;;3.00;;
4434;SDS011;46552;52.150;8.428;2023-02-04T06:20:38;4.83;;;1.63;;
4434;SDS011;46552;52.150;8.428;2023-02-04T06:23:07;8.90;;;1.77;;
4434;SDS011;46552;52.150;8.428;2023-02-04T06:25:34;10.03;;;1.93;;
4434;SDS011;46552;52.150;8.428;2023-02-04T06:28:02;8.80;;;2.33;;
4434;SDS011;46552;52.150;8.428;2023-02-04T06:30:29;5.90;;;2.20;;
4434;SDS011;46552;52.150;8.428;2023-02-04T06:32:56;9.33;;;2.57;;
4434;SDS011;46552;52.150;8.428;2023-02-04T06:35:24;11.30;;;3.50;;
4434;SDS011;46552;52.150;8.428;2023-02-04T06:37:51;11.40;;;2.13;;
4434;SDS011;46552;52.150;8.428;2023-02-04T06:40:20;8.13;;;2.03;;
4434;SDS011;46552;52.150;8.428;2023-02-04T06:42:47;7.60;;;2.40;;
4434;SDS011;46552;52.150;8.428;2023-02-04T06:45:14;8.30;;;2.07;;
4434;SDS011;46552;52.150;8.428;2023-02-04T06:47:42;15.63;;;3.47;;
4434;SDS011;46552;52.150;8.428;2023-02-04T06:50:09;14.50;;;3.97;;
4434;SDS011;46552;52.150;8.428;2023-02-04T06:52:36;12.10;;;2.80;;
4434;SDS011;46552;52.150;8.428;2023-02-04T06:55:04;12.23;;;3.80;;
4434;SDS011;46552;52.150;8.428;2023-02-04T06:57:34;16.70;;;3.80;;
4434;SDS011;46552;52.150;8.428;2023-02-04T07:00:02;12.37;;;3.93;;
4434;SDS011;46552;52.150;8.428;2023-02-04T07:02:29;8.67;;;3.77;;
4434;SDS011;46552;52.150;8.428;2023-02-04T07:04:56;10.90;;;3.70;;
4434;SDS011;46552;52.150;8.428;2023-02-04T07:07:24;9.80;;;2.40;;
4434;SDS011;46552;52.150;8.428;2023-02-04T07:09:52;10.50;;;3.50;;
4434;SDS011;46552;52.150;8.428;2023-02-04T07:12:19;8.97;;;3.27;;
4434;SDS011;46552;52.150;8.428;2023-02-04T07:14:48;25.57;;;3.50;;
4434;SDS011;46552;52.150;8.428;2023-02-04T07:17:15;14.47;;;2.60;;
4434;SDS011;46552;52.150;8.428;2023-02-04T07:19:43;14.93;;;3.67;;
4434;SDS011;46552;52.150;8.428;2023-02-04T07:22:10;9.23;;;2.80;;
4434;SDS011;46552;52.150;8.428;2023-02-04T07:24:39;8.07;;;3.10;;
4434;SDS011;46552;52.150;8.428;2023-02-04T07:27:07;17.13;;;4.07;;
4434;SDS011;46552;52.150;8.428;2023-02-04T07:29:34;6.20;;;2.10;;
4434;SDS011;46552;52.150;8.428;2023-02-04T07:32:04;18.67;;;3.13;;
4434;SDS011;46552;52.150;8.428;2023-02-04T07:34:31;9.70;;;2.93;;
4434;SDS011;46552;52.150;8.428;2023-02-04T07:36:59;6.97;;;2.00;;
4434;SDS011;46552;52.150;8.428;2023-02-04T07:39:26;6.23;;;2.90;;
4434;SDS011;46552;52.150;8.428;2023-02-04T07:41:53;10.83;;;2.40;;
4434;SDS011;46552;52.150;8.428;2023-02-04T07:44:21;10.33;;;3.50;;
4434;SDS011;46552;52.150;8.428;2023-02-04T07:46:48;10.23;;;2.40;;
4434;SDS011;46552;52.150;8.428;2023-02-04T07:49:17;14.20;;;2.70;;
4434;SDS011;46552;52.150;8.428;2023-02-04T07:51:44;11.23;;;2.70;;
4434;SDS011;46552;52.150;8.428;2023-02-04T07:54:12;9.57;;;3.70;;
4434;SDS011;46552;52.150;8.428;2023-02-04T07:56:39;10.43;;;2.40;;
4434;SDS011;46552;52.150;8.428;2023-02-04T07:59:07;7.23;;;2.90;;
4434;SDS011;46552;52.150;8.428;2023-02-04T08:01:34;24.97;;;4.20;;
4434;SDS011;46552;52.150;8.428;2023-02-04T08:04:01;10.10;;;2.70;;
4434;SDS011;46552;52.150;8.428;2023-02-04T08:06:31;9.67;;;2.40;;
4434;SDS011;46552;52.150;8.428;2023-02-04T08:08:58;8.93;;;2.33;;
4434;SDS011;46552;52.150;8.428;2023-02-04T08:11:25;6.73;;;2.30;;
4434;SDS011;46552;52.150;8.428;2023-02-04T08:13:53;7.00;;;2.13;;
4434;SDS011;46552;52.150;8.428;2023-02-04T08:16:20;4.83;;;1.57;;
4434;SDS011;46552;52.150;8.428;2023-02-04T08:18:47;5.73;;;1.80;;
4434;SDS011;46552;52.150;8.428;2023-02-04T08:21:15;9.67;;;2.07;;
4434;SDS011;46552;52.150;8.428;2023-02-04T08:23:45;5.53;;;2.10;;
4434;SDS011;46552;52.150;8.428;2023-02-04T08:26:11;7.80;;;1.80;;
4434;SDS011;46552;52.150;8.428;2023-02-04T08:28:39;9.67;;;2.80;;
4434;SDS011;46552;52.150;8.428;2023-02-04T08:31:07;9.37;;;2.47;;
4434;SDS011;46552;52.150;8.428;2023-02-04T08:33:37;6.70;;;2.30;;
4434;SDS011;46552;52.150;8.428;2023-02-04T08:36:05;7.27;;;2.13;;
4434;SDS011;46552;52.150;8.428;2023-02-04T08:38:32;8.60;;;3.00;;
4434;SDS011;46552;52.150;8.428;2023-02-04T08:41:02;13.83;;;4.40;;
4434;SDS011;46552;52.150;8.428;2023-02-04T08:43:29;8.00;;;2.80;;
4434;SDS011;46552;52.150;8.428;2023-02-04T08:45:57;6.30;;;2.20;;
4434;SDS011;46552;52.150;8.428;2023-02-04T08:48:24;5.57;;;2.37;;
4434;SDS011;46552;52.150;8.428;2023-02-04T08:50:51;4.40;;;1.93;;
4434;SDS011;46552;52.150;8.428;2023-02-04T08:53:19;13.90;;;3.07;;
4434;SDS011;46552;52.150;8.428;2023-02-04T08:55:51;6.63;;;2.20;;
4434;SDS011;46552;52.150;8.428;2023-02-04T08:58:19;7.53;;;2.00;;
4434;SDS011;46552;52.150;8.428;2023-02-04T09:00:46;8.37;;;2.67;;
4434;SDS011;46552;52.150;8.428;2023-02-04T09:03:14;7.90;;;2.53;;
4434;SDS011;46552;52.150;8.428;2023-02-04T09:05:41;5.67;;;2.13;;
4434;SDS011;46552;52.150;8.428;2023-02-04T09:08:09;6.93;;;2.40;;
4434;SDS011;46552;52.150;8.428;2023-02-04T09:10:36;11.03;;;2.70;;
4434;SDS011;46552;52.150;8.428;2023-02-04T09:13:04;6.20;;;2.13;;
4434;SDS011;46552;52.150;8.428;2023-02-04T09:15:34;9.03;;;2.97;;
4434;SDS011;46552;52.150;8.428;2023-02-04T09:18:02;9.13;;;2.63;;
4434;SDS011;46552;52.150;8.428;2023-02-04T09:20:38;9.50;;;3.23;;
4434;SDS011;46552;52.150;8.428;2023-02-04T09:23:05;7.63;;;2.40;;
4434;SDS011;46552;52.150;8.428;2023-02-04T09:25:36;4.90;;;2.27;;
4434;SDS011;46552;52.150;8.428;2023-02-04T09:28:03;5.70;;;2.23;;
4434;SDS011;46552;52.150;8.428;2023-02-04T09:30:31;9.80;;;3.90;;
4434;SDS011;46552;52.150;8.428;2023-02-04T09:33:00;11.43;;;3.20;;
4434;SDS011;46552;52.150;8.428;2023-02-04T09:35:28;8.30;;;2.57;;
4434;SDS011;46552;52.150;8.428;2023-02-04T09:37:55;6.23;;;2.40;;
4434;SDS011;46552;52.150;8.428;2023-02-04T09:40:22;4.20;;;2.30;;
4434;SDS011;46552;52.150;8.428;2023-02-04T09:42:53;12.70;;;3.90;;
4434;SDS011;46552;52.150;8.428;2023-02-04T09:45:22;3.70;;;2.27;;
4434;SDS011;46552;52.150;8.428;2023-02-04T09:47:52;4.50;;;1.73;;
4434;SDS011;46552;52.150;8.428;2023-02-04T09:50:22;6.90;;;2.30;;
4434;SDS011;46552;52.150;8.428;2023-02-04T09:52:52;5.33;;;1.73;;
4434;SDS011;46552;52.150;8.428;2023-02-04T09:55:24;6.73;;;2.10;;
4434;SDS011;46552;52.150;8.428;2023-02-04T09:57:54;5.60;;;1.57;;
4434;SDS011;46552;52.150;8.428;2023-02-04T10:00:23;4.90;;;1.60;;
4434;SDS011;46552;52.150;8.428;2023-02-04T10:02:52;3.80;;;1.50;;
4434;SDS011;46552;52.150;8.428;2023-02-04T10:05:23;2.63;;;1.27;;
4434;SDS011;46552;52.150;8.428;2023-02-04T10:07:54;6.70;;;1.27;;
4434;SDS011;46552;52.150;8.428;2023-02-04T10:10:22;4.00;;;1.57;;
4434;SDS011;46552;52.150;8.428;2023-02-04T10:12:52;2.37;;;0.90;;
4434;SDS011;46552;52.150;8.428;2023-02-04T10:15:22;3.40;;;1.20;;
4434;SDS011;46552;52.150;8.428;2023-02-04T10:17:50;2.37;;;1.10;;
4434;SDS011;46552;52.150;8.428;2023-02-04T10:20:21;2.67;;;1.30;;
4434;SDS011;46552;52.150;8.428;2023-02-04T10:22:51;3.60;;;1.00;;
4434;SDS011;46552;52.150;8.428;2023-02-04T10:25:20;2.57;;;1.00;;
4434;SDS011;46552;52.150;8.428;2023-02-04T10:27:49;3.30;;;1.40;;
4434;SDS011;46552;52.150;8.428;2023-02-04T10:30:18;4.10;;;1.80;;
4434;SDS011;46552;52.150;8.428;2023-02-04T10:32:48;4.17;;;2.10;;
4434;SDS011;46552;52.150;8.428;2023-02-04T10:35:16;3.67;;;1.83;;
4434;SDS011;46552;52.150;8.428;2023-02-04T10:37:45;5.93;;;1.70;;
4434;SDS011;46552;52.150;8.428;2023-02-04T10:40:24;3.37;;;1.47;;
4434;SDS011;46552;52.150;8.428;2023-02-04T10:42:52;5.20;;;1.77;;
4434;SDS011;46552;52.150;8.428;2023-02-04T10:45:21;2.80;;;1.37;;
4434;SDS011;46552;52.150;8.428;2023-02-04T10:47:49;5.23;;;1.83;;
4434;SDS011;46552;52.150;8.428;2023-02-04T10:50:18;7.73;;;2.10;;
4434;SDS011;46552;52.150;8.428;2023-02-04T10:52:48;4.00;;;1.40;;
4434;SDS011;46552;52.150;8.428;2023-02-04T10:55:20;2.60;;;1.43;;
4434;SDS011;46552;52.150;8.428;2023-02-04T10:57:48;6.03;;;1.50;;
4434;SDS011;46552;52.150;8.428;2023-02-04T11:00:17;3.30;;;1.70;;
4434;SDS011;46552;52.150;8.428;2023-02-04T11:02:48;4.07;;;1.70;;
4434;SDS011;46552;52.150;8.428;2023-02-04T11:05:20;4.00;;;1.77;;
4434;SDS011;46552;52.150;8.428;2023-02-04T11:07:51;4.80;;;1.97;;
4434;SDS011;46552;52.150;8.428;2023-02-04T11:10:20;9.50;;;1.83;;
4434;SDS011;46552;52.150;8.428;2023-02-04T11:12:58;5.90;;;1.57;;
4434;SDS011;46552;52.150;8.428;2023-02-04T11:15:40;2.83;;;1.43;;
4434;SDS011;46552;52.150;8.428;2023-02-04T11:18:10;3.17;;;1.97;;
4434;SDS011;46552;52.150;8.428;2023-02-04T11:20:39;4.27;;;2.07;;
4434;SDS011;46552;52.150;8.428;2023-02-04T11:26:05;5.10;;;1.40;;
4434;SDS011;46552;52.150;8.428;2023-02-04T11:28:43;3.47;;;1.20;;
4434;SDS011;46552;52.150;8.428;2023-02-04T11:31:27;3.17;;;1.60;;
4434;SDS011;46552;52.150;8.428;2023-02-04T11:34:08;3.00;;;1.27;;
4434;SDS011;46552;52.150;8.428;2023-02-04T11:39:35;3.37;;;1.80;;
4434;SDS011;46552;52.150;8.428;2023-02-04T11:42:03;3.13;;;1.73;;
4434;SDS011;46552;52.150;8.428;2023-02-04T11:44:31;2.93;;;1.53;;
4434;SDS011;46552;52.150;8.428;2023-02-04T11:46:59;4.00;;;1.77;;
4434;SDS011;46552;52.150;8.428;2023-02-04T11:49:27;3.80;;;1.43;;
4434;SDS011;46552;52.150;8.428;2023-02-04T11:54:42;5.57;;;1.83;;
4434;SDS011;46552;52.150;8.428;2023-02-04T11:57:19;5.40;;;3.00;;
4434;SDS011;46552;52.150;8.428;2023-02-04T11:59:47;3.37;;;1.80;;
4434;SDS011;46552;52.150;8.428;2023-02-04T12:02:14;4.67;;;2.03;;
4434;SDS011;46552;52.150;8.428;2023-02-04T12:04:50;2.50;;;1.40;;
4434;SDS011;46552;52.150;8.428;2023-02-04T12:07:23;3.07;;;1.30;;
4434;SDS011;46552;52.150;8.428;2023-02-04T12:09:53;6.30;;;2.60;;
4434;SDS011;46552;52.150;8.428;2023-02-04T12:12:24;8.73;;;3.50;;
4434;SDS011;46552;52.150;8.428;2023-02-04T12:15:00;2.93;;;1.50;;
4434;SDS011;46552;52.150;8.428;2023-02-04T12:17:29;4.07;;;1.53;;
4434;SDS011;46552;52.150;8.428;2023-02-04T12:19:56;3.13;;;1.43;;
4434;SDS011;46552;52.150;8.428;2023-02-04T12:22:24;3.60;;;1.40;;
4434;SDS011;46552;52.150;8.428;2023-02-04T12:24:52;7.30;;;2.00;;
4434;SDS011;46552;52.150;8.428;2023-02-04T12:27:20;2.40;;;1.23;;
4434;SDS011;46552;52.150;8.428;2023-02-04T12:29:48;2.93;;;1.30;;
4434;SDS011;46552;52.150;8.428;2023-02-04T12:32:15;1.90;;;0.90;;
4434;SDS011;46552;52.150;8.428;2023-02-04T12:34:42;6.43;;;2.47;;
4434;SDS011;46552;52.150;8.428;2023-02-04T12:37:09;4.10;;;1.67;;
4434;SDS011;46552;52.150;8.428;2023-02-04T12:39:37;4.53;;;1.63;;
4434;SDS011;46552;52.150;8.428;2023-02-04T12:42:06;3.07;;;1.60;;
4434;SDS011;46552;52.150;8.428;2023-02-04T12:44:33;3.60;;;1.47;;
4434;SDS011;46552;52.150;8.428;2023-02-04T12:47:00;3.90;;;1.60;;
4434;SDS011;46552;52.150;8.428;2023-02-04T12:49:28;6.73;;;1.30;;
4434;SDS011;46552;52.150;8.428;2023-02-04T12:51:55;3.73;;;1.73;;
4434;SDS011;46552;52.150;8.428;2023-02-04T12:54:26;4.97;;;1.60;;
4434;SDS011;46552;52.150;8.428;2023-02-04T12:56:53;6.40;;;1.73;;
4434;SDS011;46552;52.150;8.428;2023-02-04T12:59:23;4.30;;;1.50;;
4434;SDS011;46552;52.150;8.428;2023-02-04T13:01:51;2.63;;;1.53;;
4434;SDS011;46552;52.150;8.428;2023-02-04T13:04:18;4.90;;;1.70;;
4434;SDS011;46552;52.150;8.428;2023-02-04T13:06:46;7.40;;;2.23;;
4434;SDS011;46552;52.150;8.428;2023-02-04T13:09:13;5.90;;;2.50;;
4434;SDS011;46552;52.150;8.428;2023-02-04T13:11:40;5.17;;;1.93;;
4434;SDS011;46552;52.150;8.428;2023-02-04T13:14:07;5.43;;;2.03;;
4434;SDS011;46552;52.150;8.428;2023-02-04T13:16:37;3.90;;;1.77;;
4434;SDS011;46552;52.150;8.428;2023-02-04T13:19:04;6.53;;;2.50;;
4434;SDS011;46552;52.150;8.428;2023-02-04T13:21:31;11.90;;;2.33;;
4434;SDS011;46552;52.150;8.428;2023-02-04T13:23:59;5.50;;;2.10;;
4434;SDS011;46552;52.150;8.428;2023-02-04T13:26:26;4.27;;;2.00;;
4434;SDS011;46552;52.150;8.428;2023-02-04T13:28:54;3.33;;;2.00;;
4434;SDS011;46552;52.150;8.428;2023-02-04T13:31:21;2.97;;;1.43;;
4434;SDS011;46552;52.150;8.428;2023-02-04T13:33:50;3.17;;;1.40;;
4434;SDS011;46552;52.150;8.428;2023-02-04T13:36:16;3.13;;;1.60;;
4434;SDS011;46552;52.150;8.428;2023-02-04T13:38:44;3.10;;;1.67;;
4434;SDS011;46552;52.150;8.428;2023-02-04T13:41:11;4.90;;;1.83;;
4434;SDS011;46552;52.150;8.428;2023-02-04T13:43:38;2.90;;;1.33;;
4434;SDS011;46552;52.150;8.428;2023-02-04T13:46:05;4.10;;;1.97;;
4434;SDS011;46552;52.150;8.428;2023-02-04T13:48:33;3.40;;;1.87;;
4434;SDS011;46552;52.150;8.428;2023-02-04T13:51:03;4.20;;;1.60;;
4434;SDS011;46552;52.150;8.428;2023-02-04T13:53:30;5.90;;;3.20;;
4434;SDS011;46552;52.150;8.428;2023-02-04T13:55:58;3.90;;;2.40;;
4434;SDS011;46552;52.150;8.428;2023-02-04T13:58:25;6.80;;;2.43;;
4434;SDS011;46552;52.150;8.428;2023-02-04T14:00:53;3.83;;;2.23;;
4434;SDS011;46552;52.150;8.428;2023-02-04T14:03:21;3.17;;;1.73;;
4434;SDS011;46552;52.150;8.428;2023-02-04T14:05:49;4.33;;;2.40;;
4434;SDS011;46552;52.150;8.428;2023-02-04T14:08:18;4.37;;;2.13;;
4434;SDS011;46552;52.150;8.428;2023-02-04T14:10:46;4.63;;;1.87;;
4434;SDS011;46552;52.150;8.428;2023-02-04T14:13:13;4.13;;;2.20;;
4434;SDS011;46552;52.150;8.428;2023-02-04T14:15:41;3.33;;;1.90;;
4434;SDS011;46552;52.150;8.428;2023-02-04T14:18:08;4.00;;;2.10;;
4434;SDS011;46552;52.150;8.428;2023-02-04T14:20:36;8.33;;;2.37;;
4434;SDS011;46552;52.150;8.428;2023-02-04T14:23:04;5.10;;;1.93;;
4434;SDS011;46552;52.150;8.428;2023-02-04T14:25:32;4.70;;;2.33;;
4434;SDS011;46552;52.150;8.428;2023-02-04T14:27:59;14.10;;;6.00;;
4434;SDS011;46552;52.150;8.428;2023-02-04T14:30:28;5.70;;;2.40;;
4434;SDS011;46552;52.150;8.428;2023-02-04T14:32:55;3.87;;;1.60;;
4434;SDS011;46552;52.150;8.428;2023-02-04T14:35:23;4.20;;;1.97;;
4434;SDS011;46552;52.150;8.428;2023-02-04T14:37:51;5.77;;;1.57;;
4434;SDS011;46552;52.150;8.428;2023-02-04T14:40:18;6.07;;;2.37;;
4434;SDS011;46552;52.150;8.428;2023-02-04T14:42:47;3.37;;;1.87;;
4434;SDS011;46552;52.150;8.428;2023-02-04T14:45:14;3.67;;;2.00;;
4434;SDS011;46552;52.150;8.428;2023-02-04T14:47:42;3.87;;;1.97;;
4434;SDS011;46552;52.150;8.428;2023-02-04T14:50:10;3.17;;;1.20;;
4434;SDS011;46552;52.150;8.428;2023-02-04T14:52:38;4.50;;;2.40;;
4434;SDS011;46552;52.150;8.428;2023-02-04T14:55:06;7.97;;;2.30;;
4434;SDS011;46552;52.150;8.428;2023-02-04T14:57:35;7.40;;;2.50;;
4434;SDS011;46552;52.150;8.428;2023-02-04T15:00:04;3.90;;;1.80;;
4434;SDS011;46552;52.150;8.428;2023-02-04T15:02:32;5.00;;;3.03;;
4434;SDS011;46552;52.150;8.428;2023-02-04T15:04:59;13.57;;;5.83;;
4434;SDS011;46552;52.150;8.428;2023-02-04T15:07:27;10.80;;;4.60;;
4434;SDS011;46552;52.150;8.428;2023-02-04T15:09:54;7.70;;;2.67;;
4434;SDS011;46552;52.150;8.428;2023-02-04T15:12:21;6.90;;;2.40;;